Time;durP1;ratioP1;P1;durP2;ratioP2;P2;SDS_P1;SDS_P2;PMS_P1;PMS_P2;Temp;Humidity;BMP_temperature;BMP_pressure;BME280_temperature;BME280_humidity;BME280_pressure;Samples;Min_cycle;Max_cycle;Signal;HPM_P1;HPM_P2
2022/07/20 00:02:04;;;;;;;5.78;2.33;;;;;;;31.56;26.90;100938.84;5004438;28;20104;-67
2022/07/20 00:04:30;;;;;;;5.95;2.15;;;;;;;31.52;26.74;100940.47;4974642;28;20022;-67
2022/07/20 00:06:56;;;;;;;6.70;2.05;;;;;;;31.49;27.02;100938.22;5002614;28;20030;-67
2022/07/20 00:12:06;;;;;;;8.77;2.72;;;;;;;31.37;27.61;100933.94;5009300;28;20540;-67
2022/07/20 00:14:32;;;;;;;3.95;2.42;;;;;;;31.33;27.55;100927.25;4993455;28;20104;-67
2022/07/20 00:16:57;;;;;;;4.88;2.83;;;;;;;31.29;27.47;100932.50;5007075;28;20065;-67
2022/07/20 00:19:23;;;;;;;4.72;2.13;;;;;;;31.22;27.52;100926.34;5008169;28;20022;-67
2022/07/20 00:21:48;;;;;;;5.05;2.50;;;;;;;31.20;27.40;100934.06;4990370;28;20148;-67
2022/07/20 00:24:13;;;;;;;13.05;2.53;;;;;;;31.16;28.03;100938.44;5005277;28;20472;-67
2022/07/20 00:26:39;;;;;;;5.65;2.28;;;;;;;31.13;27.62;100936.19;5003264;28;20034;-67
2022/07/20 00:29:04;;;;;;;4.88;2.40;;;;;;;31.11;27.47;100932.88;5000868;28;20029;-67
2022/07/20 00:31:30;;;;;;;2.95;1.90;;;;;;;31.08;27.90;100939.78;5010560;28;20029;-67
2022/07/20 00:33:55;;;;;;;12.35;2.30;;;;;;;31.05;27.40;100933.91;4975657;28;20025;-67
2022/07/20 00:36:21;;;;;;;4.68;2.33;;;;;;;30.99;28.02;100933.03;4990920;28;20368;-67
2022/07/20 00:38:46;;;;;;;6.55;2.65;;;;;;;30.95;27.85;100936.59;4992728;28;20025;-67
2022/07/20 00:41:12;;;;;;;9.05;2.28;;;;;;;30.86;28.12;100933.41;4993328;28;20479;-67
2022/07/20 00:43:56;;;;;;;3.15;1.77;;;;;;;30.83;28.69;100938.63;4992344;28;20038;-67
2022/07/20 00:46:21;;;;;;;5.30;2.50;;;;;;;30.76;28.72;100938.00;5000320;28;20538;-67
2022/07/20 00:48:47;;;;;;;6.85;2.33;;;;;;;30.71;28.64;100924.13;4991957;28;20037;-67
2022/07/20 00:51:12;;;;;;;7.13;2.03;;;;;;;30.67;28.68;100923.81;5008428;28;20038;-67
2022/07/20 00:53:38;;;;;;;3.95;1.88;;;;;;;30.62;28.18;100920.97;4992037;28;20080;-67
2022/07/20 00:56:04;;;;;;;3.30;2.78;;;;;;;30.57;28.13;100924.50;5002184;28;20110;-67
2022/07/20 00:58:29;;;;;;;4.00;2.05;;;;;;;30.53;28.46;100917.84;5000696;28;20041;-67
2022/07/20 01:00:54;;;;;;;5.63;2.28;;;;;;;30.48;28.85;100916.94;5004735;28;20467;-67
2022/07/20 01:03:20;;;;;;;5.18;1.85;;;;;;;30.47;28.63;100923.56;5005670;28;20449;-67
2022/07/20 01:05:45;;;;;;;8.27;3.53;;;;;;;30.42;28.74;100917.97;4996005;28;20027;-67
2022/07/20 01:08:10;;;;;;;3.10;1.92;;;;;;;30.41;29.25;100913.50;4997768;28;20026;-67
2022/07/20 01:10:36;;;;;;;2.58;1.80;;;;;;;30.37;29.01;100918.75;4986329;28;20041;-67
2022/07/20 01:13:02;;;;;;;2.70;1.83;;;;;;;30.35;28.68;100912.59;5001804;28;20026;-67
2022/07/20 01:15:27;;;;;;;2.47;2.15;;;;;;;30.33;28.76;100928.59;5006006;28;20053;-67
2022/07/20 01:17:52;;;;;;;6.68;2.50;;;;;;;30.31;29.08;100963.97;5004169;28;20060;-67
2022/07/20 01:20:18;;;;;;;9.18;2.63;;;;;;;30.31;28.86;100961.22;5005886;28;20555;-67
2022/07/20 01:22:45;;;;;;;7.30;2.25;;;;;;;30.34;28.49;100968.16;5003905;28;20022;-67
2022/07/20 01:25:10;;;;;;;3.88;2.58;;;;;;;30.35;28.54;100984.47;5004056;28;20022;-68
2022/07/20 01:27:36;;;;;;;4.68;2.22;;;;;;;30.39;28.52;100977.38;5003887;28;20081;-67
2022/07/20 01:30:01;;;;;;;5.00;2.30;;;;;;;30.45;28.65;100989.34;5007094;28;20084;-67
2022/07/20 01:32:27;;;;;;;6.13;3.58;;;;;;;30.50;28.60;100984.72;4997425;28;20030;-66
2022/07/20 01:34:52;;;;;;;6.97;2.35;;;;;;;30.58;28.44;101006.41;5006626;28;20377;-67
2022/07/20 01:37:18;;;;;;;5.55;2.38;;;;;;;30.65;28.31;100994.31;5010899;28;20048;-67
2022/07/20 01:39:43;;;;;;;8.23;2.03;;;;;;;30.70;28.83;100988.84;5005129;28;20083;-67
2022/07/20 01:42:08;;;;;;;4.15;2.38;;;;;;;30.79;28.88;100998.38;5003720;28;20033;-67
2022/07/20 01:44:34;;;;;;;11.02;2.03;;;;;;;30.80;28.60;100989.78;5005394;28;20113;-67
2022/07/20 01:46:59;;;;;;;5.38;2.17;;;;;;;30.84;28.51;100998.41;5004688;28;20048;-67
2022/07/20 01:49:27;;;;;;;4.45;2.20;;;;;;;30.84;28.59;101001.19;5005492;28;20105;-67
2022/07/20 01:51:53;;;;;;;5.95;2.33;;;;;;;30.82;28.31;101004.19;5014716;28;20037;-67
2022/07/20 01:54:18;;;;;;;3.33;2.10;;;;;;;30.79;28.87;101009.44;5001486;28;20029;-67
2022/07/20 01:56:43;;;;;;;4.68;2.38;;;;;;;30.75;28.57;101003.56;5009010;28;20029;-67
2022/07/20 01:59:09;;;;;;;9.60;2.35;;;;;;;30.68;28.91;100996.56;5004061;28;20456;-67
2022/07/20 02:01:35;;;;;;;6.78;2.22;;;;;;;30.63;29.12;100996.50;4993263;28;20384;-67
2022/07/20 02:04:00;;;;;;;7.25;2.40;;;;;;;30.54;28.84;100996.94;5010520;28;20026;-67
2022/07/20 02:06:26;;;;;;;4.38;2.45;;;;;;;30.44;29.35;100996.81;4997719;28;20392;-67
2022/07/20 02:08:51;;;;;;;4.90;2.13;;;;;;;30.38;28.75;101008.88;4981571;28;20037;-67
2022/07/20 02:11:17;;;;;;;4.85;2.78;;;;;;;30.34;29.70;101006.84;5007169;28;20030;-67
2022/07/20 02:13:42;;;;;;;8.65;2.35;;;;;;;30.28;29.63;101008.72;5001897;28;20026;-67
2022/07/20 02:16:16;;;;;;;10.27;2.65;;;;;;;30.22;29.62;100998.66;5012079;28;20491;-66
2022/07/20 02:18:48;;;;;;;5.75;2.72;;;;;;;30.15;29.36;101011.00;5007940;28;20553;-67
2022/07/20 02:21:15;;;;;;;7.07;2.45;;;;;;;30.09;29.96;101023.91;5013068;28;20121;-67
2022/07/20 02:23:40;;;;;;;5.05;2.33;;;;;;;30.03;30.31;101038.72;5008740;28;20025;-67
2022/07/20 02:26:06;;;;;;;7.93;2.45;;;;;;;29.97;30.49;101014.88;5008193;28;20369;-67
2022/07/20 02:28:32;;;;;;;2.60;2.17;;;;;;;29.91;30.13;101036.06;4997303;28;20108;-67
2022/07/20 02:30:57;;;;;;;7.22;2.75;;;;;;;29.86;30.61;101026.84;5009513;28;20450;-67
2022/07/20 02:33:23;;;;;;;7.55;3.03;;;;;;;29.79;30.40;101045.47;5013633;28;20112;-67
2022/07/20 02:35:48;;;;;;;11.77;2.53;;;;;;;29.74;30.84;101037.94;5007539;28;20033;-67
2022/07/20 02:38:14;;;;;;;12.40;2.85;;;;;;;29.70;31.00;101039.53;5004609;28;20054;-67
2022/07/20 02:40:39;;;;;;;5.50;2.15;;;;;;;29.67;30.43;101039.19;5007278;28;20388;-67
2022/07/20 02:43:05;;;;;;;13.93;2.58;;;;;;;29.63;31.19;101038.00;5011583;28;20034;-67
2022/07/20 02:45:31;;;;;;;13.10;2.75;;;;;;;29.59;30.80;101051.50;5006469;28;20125;-66
2022/07/20 02:48:02;;;;;;;3.97;2.45;;;;;;;29.59;30.78;101053.41;4994134;28;20048;-67
2022/07/20 02:50:33;;;;;;;3.67;2.42;;;;;;;29.55;30.72;101052.22;5003191;28;20088;-67
2022/07/20 02:52:59;;;;;;;4.47;2.22;;;;;;;29.57;31.39;101061.94;4997620;28;20096;-67
2022/07/20 02:55:24;;;;;;;7.15;2.63;;;;;;;29.58;31.07;101057.25;5010206;28;20097;-67
2022/07/20 02:57:50;;;;;;;7.82;2.72;;;;;;;29.63;30.08;101073.91;5008946;28;20125;-67
2022/07/20 03:00:15;;;;;;;6.05;2.72;;;;;;;29.69;30.77;101065.47;5006997;28;20056;-67
2022/07/20 03:02:41;;;;;;;6.75;3.30;;;;;;;29.77;30.51;101083.56;5004862;28;20476;-67
2022/07/20 03:05:07;;;;;;;5.40;2.70;;;;;;;29.82;30.45;101087.28;5003134;28;20283;-67
2022/07/20 03:07:32;;;;;;;9.55;3.33;;;;;;;29.92;30.35;101081.09;5006845;28;20369;-67
2022/07/20 03:09:58;;;;;;;4.47;2.97;;;;;;;30.02;30.28;101075.75;5006763;28;20034;-67
2022/07/20 03:12:23;;;;;;;5.43;3.20;;;;;;;30.10;30.40;101086.38;4996770;28;20037;-67
2022/07/20 03:14:49;;;;;;;9.50;3.30;;;;;;;30.20;30.20;101088.47;5010077;28;20099;-67
2022/07/20 03:17:14;;;;;;;8.23;4.40;;;;;;;30.26;29.90;101099.38;5007912;28;20042;-67
2022/07/20 03:19:39;;;;;;;10.55;4.18;;;;;;;30.33;29.82;101096.41;5005953;28;20056;-67
2022/07/20 03:22:05;;;;;;;9.73;4.53;;;;;;;30.37;29.79;101095.72;5003803;28;20018;-67
2022/07/20 03:24:30;;;;;;;10.20;4.93;;;;;;;30.44;29.95;101098.28;4995734;28;20376;-67
2022/07/20 03:26:56;;;;;;;11.43;4.60;;;;;;;30.50;29.94;101111.94;5009364;28;20036;-67
2022/07/20 03:29:21;;;;;;;10.82;5.63;;;;;;;30.52;29.87;101118.06;5004149;28;20046;-66
2022/07/20 03:31:46;;;;;;;9.70;6.05;;;;;;;30.55;30.46;101112.00;4992903;28;20033;-66
2022/07/20 03:34:12;;;;;;;14.98;6.35;;;;;;;30.61;30.18;101118.47;5005237;28;20459;-67
2022/07/20 03:36:37;;;;;;;10.15;6.25;;;;;;;30.63;30.16;101109.91;5008253;28;20070;-67
2022/07/20 03:39:02;;;;;;;15.45;7.20;;;;;;;30.65;30.50;101118.78;4988770;28;20030;-67
2022/07/20 03:41:28;;;;;;;12.73;7.63;;;;;;;30.65;30.46;101129.84;5001289;28;20022;-67
2022/07/20 03:43:53;;;;;;;14.13;7.75;;;;;;;30.62;30.83;101120.16;4990292;28;20038;-67
2022/07/20 03:46:18;;;;;;;10.50;7.18;;;;;;;30.67;31.19;101124.91;5006185;28;20022;-67
2022/07/20 03:48:44;;;;;;;16.15;8.00;;;;;;;30.70;31.28;101138.22;4999892;28;20032;-67
2022/07/20 03:51:10;;;;;;;18.67;7.75;;;;;;;30.72;31.80;101139.66;5007302;28;20033;-67
2022/07/20 03:53:35;;;;;;;14.60;9.00;;;;;;;30.74;31.25;101147.72;5006210;28;20030;-67
2022/07/20 03:56:00;;;;;;;18.48;8.05;;;;;;;30.76;31.39;101143.59;4984774;28;20373;-67
2022/07/20 03:58:26;;;;;;;11.20;8.05;;;;;;;30.77;31.35;101155.47;5006744;28;20026;-67
2022/07/20 04:00:51;;;;;;;15.30;8.93;;;;;;;30.78;31.87;101168.22;5005120;28;20026;-67
2022/07/20 04:03:16;;;;;;;19.58;8.73;;;;;;;30.81;31.77;101176.03;4995705;28;20105;-67
2022/07/20 04:05:42;;;;;;;15.32;9.98;;;;;;;30.83;32.39;101187.66;5010053;28;20025;-67
2022/07/20 04:08:08;;;;;;;15.50;9.48;;;;;;;30.86;31.92;101181.63;5008776;28;20026;-67
2022/07/20 04:10:35;;;;;;;13.57;8.02;;;;;;;30.89;32.14;101186.66;4995426;28;20029;-67
2022/07/20 04:13:04;;;;;;;14.93;8.48;;;;;;;30.93;32.43;101187.88;4991567;28;20018;-67
2022/07/20 04:15:29;;;;;;;17.48;8.52;;;;;;;30.94;31.74;101184.00;5009731;28;20038;-67
2022/07/20 04:17:55;;;;;;;13.38;7.43;;;;;;;30.95;32.07;101180.97;5007595;28;20030;-66
2022/07/20 04:20:20;;;;;;;14.52;8.07;;;;;;;30.96;31.90;101198.44;5003910;28;20026;-67
2022/07/20 04:22:46;;;;;;;14.32;8.30;;;;;;;30.98;31.95;101190.69;5011701;28;20061;-66
2022/07/20 04:25:11;;;;;;;15.30;8.02;;;;;;;31.01;32.17;101210.41;4997371;28;20480;-66
2022/07/20 04:27:36;;;;;;;12.20;7.47;;;;;;;31.04;31.82;101206.28;5009191;28;20087;-66
2022/07/20 04:30:03;;;;;;;16.52;7.88;;;;;;;31.04;32.43;101201.59;4996866;28;20026;-66
2022/07/20 04:32:29;;;;;;;15.02;7.65;;;;;;;31.07;32.36;101206.59;4993273;28;20083;-67
2022/07/20 04:34:54;;;;;;;15.75;8.15;;;;;;;31.12;32.12;101209.47;4993742;28;20035;-67
2022/07/20 04:37:19;;;;;;;13.70;8.38;;;;;;;31.17;32.37;101211.47;5006541;28;20049;-67
2022/07/20 04:39:45;;;;;;;11.05;7.95;;;;;;;31.22;32.36;101216.22;4995264;28;20034;-67
2022/07/20 04:42:10;;;;;;;21.65;8.45;;;;;;;31.30;32.16;101219.38;5003425;28;20049;-67
2022/07/20 04:44:36;;;;;;;14.57;9.32;;;;;;;31.35;32.34;101222.22;5012462;28;20083;-68
2022/07/20 04:47:01;;;;;;;16.13;8.98;;;;;;;31.41;32.44;101212.06;5009138;28;20018;-67
2022/07/20 04:49:26;;;;;;;14.48;8.50;;;;;;;31.49;32.67;101228.28;5006309;28;20022;-67
2022/07/20 04:51:52;;;;;;;23.02;9.75;;;;;;;31.54;32.21;101223.63;5010682;28;20040;-68
2022/07/20 04:54:18;;;;;;;18.52;9.45;;;;;;;31.62;32.67;101231.50;4989906;28;20033;-66
2022/07/20 04:56:44;;;;;;;13.70;9.40;;;;;;;31.69;32.58;101232.13;5007322;28;20033;-68
2022/07/20 04:59:10;;;;;;;25.67;10.55;;;;;;;31.76;32.92;101231.94;4987288;28;20038;-68
2022/07/20 05:01:35;;;;;;;19.70;10.50;;;;;;;31.80;32.94;101233.06;5008712;28;20029;-68
2022/07/20 05:04:00;;;;;;;20.42;10.02;;;;;;;31.86;33.09;101225.66;5002971;28;20372;-67
2022/07/20 05:06:26;;;;;;;21.25;9.98;;;;;;;31.87;32.44;101227.34;4986747;28;20026;-67
2022/07/20 05:08:51;;;;;;;20.75;11.50;;;;;;;31.87;33.41;101221.78;4989216;28;20021;-67
2022/07/20 05:11:17;;;;;;;20.02;11.48;;;;;;;31.86;33.70;101229.25;4977768;28;20026;-67
2022/07/20 05:13:42;;;;;;;18.38;10.88;;;;;;;31.83;33.14;101221.47;4987232;28;20502;-67
2022/07/20 05:16:09;;;;;;;16.88;11.82;;;;;;;31.88;33.36;101240.09;5002461;28;20038;-67
2022/07/20 05:18:34;;;;;;;16.42;10.85;;;;;;;31.98;33.50;101245.75;5001025;28;20026;-66
2022/07/20 05:21:00;;;;;;;20.77;12.07;;;;;;;32.05;33.50;101249.22;4993968;28;20042;-67
2022/07/20 05:23:26;;;;;;;18.63;11.00;;;;;;;32.06;33.40;101248.09;5008854;28;20033;-66
2022/07/20 05:25:51;;;;;;;28.60;11.75;;;;;;;32.14;33.81;101248.47;5012924;28;20391;-67
2022/07/20 05:28:23;;;;;;;26.52;12.60;;;;;;;32.26;33.85;101256.63;4990540;28;20061;-67
2022/07/20 05:30:49;;;;;;;24.98;12.57;;;;;;;32.32;33.28;101247.25;5013967;28;20450;-67
2022/07/20 05:33:14;;;;;;;24.17;11.20;;;;;;;32.40;33.67;101260.66;5002711;28;20053;-68
2022/07/20 05:35:40;;;;;;;19.48;11.65;;;;;;;32.46;33.73;101273.47;5006956;28;20138;-67
2022/07/20 05:38:06;;;;;;;22.98;12.43;;;;;;;32.49;33.51;101289.59;5005141;28;20558;-67
2022/07/20 05:40:31;;;;;;;22.90;12.73;;;;;;;32.46;33.76;101290.13;5009878;28;20116;-67
2022/07/20 05:42:56;;;;;;;24.83;12.90;;;;;;;32.42;34.23;101290.88;5014764;28;20120;-66
2022/07/20 05:45:22;;;;;;;19.88;12.32;;;;;;;32.36;33.98;101286.41;5007597;28;20121;-67
2022/07/20 05:47:47;;;;;;;24.88;11.60;;;;;;;32.37;34.02;101280.59;4992056;28;20029;-67
2022/07/20 05:50:13;;;;;;;22.35;12.25;;;;;;;32.38;34.25;101273.97;5010232;28;20022;-67
2022/07/20 05:52:38;;;;;;;20.88;11.55;;;;;;;32.37;33.80;101279.75;4993408;28;20065;-68
2022/07/20 05:55:04;;;;;;;20.48;11.35;;;;;;;32.34;33.86;101289.44;5013467;28;20397;-66
2022/07/20 05:57:29;;;;;;;23.80;12.10;;;;;;;32.37;33.56;101294.47;5010182;28;20040;-66
2022/07/20 05:59:55;;;;;;;21.08;11.63;;;;;;;32.39;34.29;101303.34;5010320;28;20031;-67
2022/07/20 06:02:20;;;;;;;21.48;11.18;;;;;;;32.39;34.45;101322.78;5011182;28;20100;-67
2022/07/20 06:04:45;;;;;;;23.25;13.00;;;;;;;32.35;34.14;101316.09;5008704;28;20121;-67
2022/07/20 06:07:11;;;;;;;21.35;12.27;;;;;;;32.32;34.32;101319.38;5010844;28;20037;-67
2022/07/20 06:09:37;;;;;;;24.90;12.73;;;;;;;32.46;34.36;101319.78;4988190;28;20029;-66
2022/07/20 06:12:02;;;;;;;20.00;13.07;;;;;;;32.70;33.98;101323.94;4985903;28;20030;-66
2022/07/20 06:14:28;;;;;;;24.05;12.55;;;;;;;32.78;34.47;101337.34;4991590;28;20128;-66
2022/07/20 06:16:53;;;;;;;22.08;12.07;;;;;;;32.75;34.27;101335.09;5007471;28;20027;-67
2022/07/20 06:19:18;;;;;;;22.50;12.82;;;;;;;32.72;34.64;101330.91;5009453;28;20060;-67
2022/07/20 06:21:44;;;;;;;22.00;13.40;;;;;;;32.72;34.94;101346.75;4979206;28;20025;-67
2022/07/20 06:24:09;;;;;;;22.48;12.35;;;;;;;32.66;34.53;101354.19;4993338;28;20066;-67
2022/07/20 06:26:35;;;;;;;26.38;13.15;;;;;;;32.61;34.52;101367.97;4997615;28;20030;-67
2022/07/20 06:29:00;;;;;;;20.40;12.60;;;;;;;32.67;35.07;101378.03;5011613;28;20022;-67
2022/07/20 06:31:26;;;;;;;20.40;12.50;;;;;;;32.59;34.64;101384.06;5011447;28;20028;-67
2022/07/20 06:33:52;;;;;;;21.27;12.55;;;;;;;32.52;34.67;101380.63;5003446;28;20121;-67
2022/07/20 06:36:18;;;;;;;24.15;13.30;;;;;;;32.49;34.99;101386.72;5009412;28;20118;-66
2022/07/20 06:38:44;;;;;;;17.17;11.43;;;;;;;32.46;34.97;101403.88;5013255;28;20080;-66
2022/07/20 06:41:09;;;;;;;18.10;11.38;;;;;;;32.42;34.71;101407.41;4991878;28;20479;-66
2022/07/20 06:43:35;;;;;;;22.33;11.15;;;;;;;32.33;35.38;101406.22;4995084;28;20443;-66
2022/07/20 06:46:00;;;;;;;19.27;10.52;;;;;;;32.28;34.83;101406.97;4990900;28;20031;-67
2022/07/20 06:48:26;;;;;;;18.05;11.00;;;;;;;32.27;34.62;101428.31;5010614;28;20053;-67
2022/07/20 06:50:51;;;;;;;19.80;12.18;;;;;;;32.24;35.05;101416.91;5003929;28;20026;-67
2022/07/20 06:53:16;;;;;;;21.08;11.93;;;;;;;32.21;35.20;101422.97;4986025;28;20390;-67
2022/07/20 06:55:43;;;;;;;21.83;10.45;;;;;;;32.22;35.47;101436.56;5011054;28;20080;-67
2022/07/20 06:58:08;;;;;;;15.95;10.32;;;;;;;32.46;34.36;101430.78;5001663;28;20121;-67
2022/07/20 07:00:34;;;;;;;22.88;11.23;;;;;;;32.66;34.81;101437.44;5009424;28;20122;-65
2022/07/20 07:02:59;;;;;;;23.70;12.38;;;;;;;33.01;34.49;101438.91;4979719;28;20022;-66
2022/07/20 07:05:25;;;;;;;17.30;10.68;;;;;;;33.32;33.89;101455.63;5011489;28;20402;-66
2022/07/20 07:07:50;;;;;;;17.73;10.65;;;;;;;33.60;33.42;101451.72;4999347;28;20026;-67
2022/07/20 07:10:15;;;;;;;17.35;10.93;;;;;;;33.91;33.32;101458.31;5008020;28;20593;-66
2022/07/20 07:12:41;;;;;;;19.58;10.07;;;;;;;34.22;33.41;101445.47;5014138;28;20369;-66
2022/07/20 07:15:07;;;;;;;18.00;10.50;;;;;;;34.54;33.62;101455.31;5005490;28;20044;-67
2022/07/20 07:17:32;;;;;;;19.23;10.32;;;;;;;34.83;32.90;101452.94;4993874;28;20419;-67
2022/07/20 07:19:58;;;;;;;17.42;9.90;;;;;;;35.08;32.51;101457.75;5006539;28;20093;-67
2022/07/20 07:22:27;;;;;;;22.33;9.75;;;;;;;35.32;32.56;101461.69;5005581;28;20105;-66
2022/07/20 07:24:53;;;;;;;18.15;10.32;;;;;;;35.53;32.48;101462.53;5004966;28;20034;-66
2022/07/20 07:27:19;;;;;;;17.27;9.68;;;;;;;35.78;31.73;101459.75;4988155;28;20098;-67
2022/07/20 07:29:45;;;;;;;23.77;9.60;;;;;;;35.98;31.62;101473.66;5006606;28;20137;-67
2022/07/20 07:32:10;;;;;;;17.85;9.73;;;;;;;36.15;31.08;101476.16;4988167;28;20022;-67
2022/07/20 07:34:36;;;;;;;17.77;9.23;;;;;;;36.34;31.39;101474.41;4988770;28;20021;-66
2022/07/20 07:37:01;;;;;;;19.42;9.35;;;;;;;36.52;30.84;101470.16;4993933;28;20123;-67
2022/07/20 07:39:26;;;;;;;14.02;8.77;;;;;;;36.69;30.57;101463.09;4998974;28;20381;-67
2022/07/20 07:41:52;;;;;;;19.88;8.93;;;;;;;36.90;30.19;101472.22;5005550;28;20026;-67
2022/07/20 07:44:17;;;;;;;16.95;8.32;;;;;;;37.04;30.35;101472.44;5006225;28;20048;-66
2022/07/20 07:46:43;;;;;;;16.05;7.57;;;;;;;36.99;29.80;101470.53;5004232;28;20079;-67
2022/07/20 07:49:08;;;;;;;14.65;8.73;;;;;;;36.99;30.28;101469.69;5008177;28;20556;-67
2022/07/20 07:51:33;;;;;;;12.48;7.75;;;;;;;36.98;30.02;101485.59;4996089;28;20022;-67
2022/07/20 07:53:59;;;;;;;18.70;7.80;;;;;;;37.07;29.82;101489.47;5004944;28;20079;-67
2022/07/20 07:56:24;;;;;;;10.05;7.78;;;;;;;37.22;29.79;101482.91;5011265;28;20028;-66
2022/07/20 07:58:50;;;;;;;12.55;7.10;;;;;;;37.38;29.38;101470.50;4995522;28;20108;-67
2022/07/20 08:01:15;;;;;;;12.98;7.75;;;;;;;37.49;29.85;101474.06;4985556;28;20026;-67
2022/07/20 08:03:41;;;;;;;13.57;8.13;;;;;;;37.61;29.13;101485.69;5004205;28;20022;-67
2022/07/20 08:06:06;;;;;;;12.48;7.78;;;;;;;37.79;28.84;101493.38;4977598;28;20037;-66
2022/07/20 08:08:32;;;;;;;13.25;7.85;;;;;;;37.47;29.42;101481.94;4999645;28;20391;-67
2022/07/20 08:10:57;;;;;;;13.48;7.75;;;;;;;37.26;29.56;101482.06;5009026;28;20038;-66
2022/07/20 08:13:23;;;;;;;12.18;7.85;;;;;;;36.99;29.48;101476.13;5011986;28;20113;-67
2022/07/20 08:15:48;;;;;;;13.23;7.25;;;;;;;36.81;29.40;101465.56;5005666;28;20026;-67
2022/07/20 08:18:13;;;;;;;11.32;6.97;;;;;;;36.62;30.31;101447.78;4994518;28;20056;-67
2022/07/20 08:20:39;;;;;;;13.10;7.00;;;;;;;36.49;29.94;101431.63;4995416;28;20025;-67
2022/07/20 08:23:04;;;;;;;11.75;8.13;;;;;;;36.39;29.79;101438.09;4992154;28;20022;-67
2022/07/20 08:25:30;;;;;;;16.30;8.20;;;;;;;36.31;30.30;101451.81;5009793;28;20026;-68
2022/07/20 08:28:08;;;;;;;18.63;8.30;;;;;;;36.25;29.75;101486.44;5009569;28;20087;-67
2022/07/20 08:30:33;;;;;;;12.38;7.57;;;;;;;36.18;30.15;101504.31;5012446;28;20026;-66
2022/07/20 08:32:59;;;;;;;11.95;7.60;;;;;;;36.23;30.24;101511.84;4994022;28;20026;-67
2022/07/20 08:35:24;;;;;;;15.88;8.40;;;;;;;36.34;29.70;101507.91;4979221;28;20087;-67
2022/07/20 08:37:49;;;;;;;9.25;7.03;;;;;;;36.53;29.68;101522.94;5008123;28;20531;-67
2022/07/20 08:40:16;;;;;;;12.52;7.60;;;;;;;36.59;29.56;101533.00;5006442;28;20038;-67
2022/07/20 08:42:42;;;;;;;11.18;6.95;;;;;;;36.49;29.71;101527.38;5005162;28;20014;-67
2022/07/20 08:45:09;;;;;;;12.02;7.18;;;;;;;36.46;29.59;101521.56;4977330;28;20148;-67
2022/07/20 08:47:39;;;;;;;13.40;7.47;;;;;;;36.37;29.71;101523.25;4990707;28;20026;-67
2022/07/20 08:50:05;;;;;;;13.52;7.05;;;;;;;36.27;29.66;101526.09;5005154;28;20034;-66
2022/07/20 08:52:30;;;;;;;14.75;6.60;;;;;;;36.15;29.46;101521.66;5005634;28;20022;-67
2022/07/20 08:54:56;;;;;;;10.80;7.18;;;;;;;36.03;29.77;101496.00;5011341;28;20033;-67
2022/07/20 08:57:22;;;;;;;12.40;7.18;;;;;;;35.91;30.32;101480.63;5006056;28;20037;-66
2022/07/20 08:59:47;;;;;;;12.30;6.07;;;;;;;35.81;30.21;101486.22;5004464;28;20034;-67
2022/07/20 09:02:13;;;;;;;16.58;6.38;;;;;;;35.73;30.30;101468.13;4978552;28;20160;-67
2022/07/20 09:04:59;;;;;;;11.82;6.00;;;;;;;35.68;29.88;101451.38;5007423;28;20065;-66
2022/07/20 09:07:44;;;;;;;9.38;4.60;;;;;;;35.59;30.01;101433.56;4984829;28;20113;-68
2022/07/20 09:10:12;;;;;;;8.38;4.82;;;;;;;35.51;30.26;101432.13;4999540;28;20040;-67
2022/07/20 09:13:01;;;;;;;8.20;5.00;;;;;;;35.56;30.12;101445.28;5001345;28;20017;-67
2022/07/20 09:15:34;;;;;;;8.48;4.53;;;;;;;35.64;30.22;101447.50;5009066;28;20029;-66
2022/07/20 09:18:06;;;;;;;9.52;4.22;;;;;;;35.69;29.34;101461.41;5005004;28;20049;-66
2022/07/20 09:20:32;;;;;;;6.22;4.53;;;;;;;35.71;29.76;101487.06;5008444;28;20053;-66
2022/07/20 09:23:10;;;;;;;5.72;4.18;;;;;;;35.81;29.12;101512.19;4991413;28;20145;-67
2022/07/20 09:25:36;;;;;;;9.63;4.50;;;;;;;36.29;28.91;101521.91;5000675;28;20395;-68
2022/07/20 09:28:01;;;;;;;7.57;4.57;;;;;;;36.68;28.59;101530.44;5000241;28;20366;-68
2022/07/20 09:30:28;;;;;;;5.93;4.50;;;;;;;37.13;28.40;101538.59;4989069;28;20234;-67
2022/07/20 09:33:12;;;;;;;8.38;4.53;;;;;;;37.66;28.07;101531.25;4986464;28;20018;-66
2022/07/20 09:35:37;;;;;;;8.95;5.03;;;;;;;37.89;27.78;101536.13;5009843;28;20034;-67
2022/07/20 09:38:05;;;;;;;6.32;4.55;;;;;;;37.84;27.66;101538.09;4999538;28;20474;-67
2022/07/20 09:40:46;;;;;;;9.98;4.50;;;;;;;37.48;28.33;101543.16;5004543;28;20030;-66
2022/07/20 09:43:26;;;;;;;11.68;4.53;;;;;;;37.28;28.41;101555.28;5025978;28;20066;-65
2022/07/20 09:45:53;;;;;;;8.50;4.78;;;;;;;37.05;28.76;101549.56;5006380;28;20029;-67
2022/07/20 09:48:21;;;;;;;4.70;4.07;;;;;;;37.31;28.34;101560.31;5007936;28;20372;-67
2022/07/20 09:50:47;;;;;;;8.40;4.80;;;;;;;37.71;27.85;101549.97;5003096;28;20028;-67
2022/07/20 09:53:14;;;;;;;7.38;5.40;;;;;;;37.73;28.21;101548.56;4987007;28;20025;-65
2022/07/20 09:55:41;;;;;;;7.90;5.32;;;;;;;37.60;28.29;101545.59;5004632;28;20101;-67
2022/07/20 09:58:07;;;;;;;9.85;5.82;;;;;;;37.49;28.46;101532.81;5000288;28;20395;-67
2022/07/20 10:00:34;;;;;;;8.85;5.10;;;;;;;37.59;28.31;101535.50;4993386;28;20117;-66
2022/07/20 10:03:00;;;;;;;7.78;5.15;;;;;;;37.61;27.76;101545.28;5004846;28;20029;-67
2022/07/20 10:05:33;;;;;;;12.73;7.03;;;;;;;37.56;28.73;101547.28;5003894;28;20109;-67
2022/07/20 10:08:05;;;;;;;9.38;5.68;;;;;;;38.45;28.02;101536.41;5002507;28;20026;-67
2022/07/20 10:10:32;;;;;;;14.02;5.70;;;;;;;38.59;27.58;101527.25;5003164;28;20098;-67
2022/07/20 10:12:58;;;;;;;8.30;5.80;;;;;;;38.54;28.36;101530.13;5014039;28;20030;-67
2022/07/20 10:15:32;;;;;;;9.02;6.28;;;;;;;38.44;27.96;101529.13;4989601;28;20396;-67
2022/07/20 10:17:57;;;;;;;10.63;5.32;;;;;;;39.41;27.45;101540.75;5006630;28;20018;-66
2022/07/20 10:20:31;;;;;;;11.48;5.65;;;;;;;39.41;27.70;101535.13;5010076;28;20102;-66
2022/07/20 10:23:14;;;;;;;10.93;6.50;;;;;;;39.70;26.98;101536.94;5009447;28;20029;-66
2022/07/20 10:25:41;;;;;;;10.32;6.43;;;;;;;39.72;26.83;101521.47;5006131;28;20068;-67
2022/07/20 10:28:26;;;;;;;7.68;5.28;;;;;;;39.36;26.86;101529.63;5013940;28;20013;-67
2022/07/20 10:30:57;;;;;;;9.45;5.22;;;;;;;40.02;26.46;101520.06;5009409;28;20049;-66
2022/07/20 10:33:24;;;;;;;10.02;6.47;;;;;;;40.46;26.24;101516.69;5009511;28;20021;-67
2022/07/20 10:35:50;;;;;;;10.65;5.93;;;;;;;40.86;26.24;101526.28;5010693;28;20379;-66
2022/07/20 10:38:18;;;;;;;9.45;6.05;;;;;;;41.19;25.24;101524.97;4985441;28;20052;-66
2022/07/20 10:44:20;;;;;;;9.63;5.57;;;;;;;42.09;25.09;101535.94;5012672;28;20036;-66
2022/07/20 10:46:46;;;;;;;10.77;6.50;;;;;;;42.55;24.83;101538.34;5013249;28;20040;-66
2022/07/20 10:49:12;;;;;;;7.97;5.47;;;;;;;42.93;24.53;101545.09;5011283;28;20022;-65
2022/07/20 10:51:37;;;;;;;10.77;6.68;;;;;;;43.28;23.92;101531.03;5007016;28;20084;-66
2022/07/20 10:54:31;;;;;;;7.78;5.90;;;;;;;43.57;23.96;101534.03;5007026;28;20030;-66
2022/07/20 10:56:57;;;;;;;9.88;6.22;;;;;;;43.87;23.63;101535.84;5009305;28;20109;-66
2022/07/20 10:59:23;;;;;;;8.80;5.82;;;;;;;43.90;23.03;101529.53;5005704;28;20026;-66
2022/07/20 11:01:48;;;;;;;6.70;5.30;;;;;;;43.99;23.65;101521.84;5007883;28;20482;-66
2022/07/20 11:04:15;;;;;;;11.57;6.57;;;;;;;44.44;23.28;101512.88;4994232;28;20032;-65
2022/07/20 11:06:41;;;;;;;12.45;5.70;;;;;;;44.61;23.11;101495.88;4996992;28;20040;-66
2022/07/20 11:09:06;;;;;;;11.13;4.53;;;;;;;44.87;22.53;101493.66;5007674;28;20022;-65
2022/07/20 11:11:34;;;;;;;6.28;5.00;;;;;;;45.16;22.71;101484.31;4993625;28;20037;-66
2022/07/20 11:14:01;;;;;;;10.07;4.78;;;;;;;45.44;22.44;101490.25;4996408;28;20060;-66
2022/07/20 11:16:28;;;;;;;6.43;4.43;;;;;;;45.71;22.05;101488.84;5005926;28;20524;-66
2022/07/20 11:18:54;;;;;;;5.25;3.25;;;;;;;45.91;21.63;101493.59;5012749;28;20033;-66
2022/07/20 11:21:40;;;;;;;7.22;3.00;;;;;;;46.04;21.04;101496.13;4995136;28;20076;-67
2022/07/20 11:24:27;;;;;;;5.90;3.60;;;;;;;46.21;21.19;101497.91;4978062;28;20022;-66